createdAt,value
2023-08-16T00:01:32.082Z,20.40
2023-08-16T00:03:59.014Z,20.50
2023-08-16T00:06:25.977Z,20.50
2023-08-16T00:08:54.466Z,20.40
2023-08-16T00:11:21.384Z,20.30
2023-08-16T00:13:48.440Z,20.30
2023-08-16T00:16:15.238Z,20.40
2023-08-16T00:18:42.242Z,20.40
2023-08-16T00:21:09.168Z,20.20
2023-08-16T00:23:35.984Z,20.20
2023-08-16T00:26:02.758Z,20.20
2023-08-16T00:28:29.709Z,20.10
2023-08-16T00:30:57.180Z,20.10
2023-08-16T00:33:24.100Z,20.10
2023-08-16T00:35:53.711Z,20.00
2023-08-16T00:38:21.185Z,19.90
2023-08-16T00:40:49.922Z,20.00
2023-08-16T00:43:17.118Z,20.00
2023-08-16T00:45:45.821Z,20.00
2023-08-16T00:48:14.307Z,20.10
2023-08-16T00:50:41.515Z,20.00
2023-08-16T00:53:09.630Z,20.00
2023-08-16T00:55:37.039Z,20.00
2023-08-16T00:58:04.037Z,20.10
2023-08-16T01:00:31.024Z,20.00
2023-08-16T01:02:57.869Z,20.00
2023-08-16T01:05:24.764Z,20.00
2023-08-16T01:07:52.822Z,20.00
2023-08-16T01:10:23.418Z,20.00
2023-08-16T01:13:06.218Z,20.00
2023-08-16T01:15:38.235Z,19.90
2023-08-16T01:18:05.793Z,19.80
2023-08-16T01:20:33.525Z,19.80
2023-08-16T01:23:07.846Z,19.70
2023-08-16T01:25:45.177Z,19.70
2023-08-16T01:28:13.190Z,19.60
2023-08-16T01:30:43.456Z,19.60
2023-08-16T01:33:11.501Z,19.70
2023-08-16T01:35:39.392Z,19.70
2023-08-16T01:38:08.436Z,19.80
2023-08-16T01:41:14.303Z,19.90
2023-08-16T01:43:45.199Z,19.90
2023-08-16T01:46:12.563Z,19.90
2023-08-16T01:48:39.918Z,19.90
2023-08-16T01:51:07.534Z,19.90
2023-08-16T01:53:35.266Z,20.00
2023-08-16T01:56:02.576Z,20.00
2023-08-16T01:58:29.474Z,20.00
2023-08-16T02:00:56.345Z,20.00
2023-08-16T02:03:23.441Z,20.00
2023-08-16T02:05:50.477Z,20.00
2023-08-16T02:08:17.238Z,20.00
2023-08-16T02:10:44.130Z,19.90
2023-08-16T02:13:11.009Z,19.90
2023-08-16T02:15:37.929Z,19.80
2023-08-16T02:18:07.481Z,19.80
2023-08-16T02:20:34.253Z,19.70
2023-08-16T02:23:02.072Z,19.70
2023-08-16T02:25:29.343Z,19.70
2023-08-16T02:27:56.228Z,19.80
2023-08-16T02:30:22.943Z,19.70
2023-08-16T02:32:49.775Z,19.80
2023-08-16T02:35:16.749Z,20.00
2023-08-16T02:37:43.986Z,20.10
2023-08-16T02:40:11.311Z,20.00
2023-08-16T02:42:38.221Z,20.00
2023-08-16T02:45:05.483Z,19.90
2023-08-16T02:47:32.347Z,19.80
2023-08-16T02:49:59.148Z,19.80
2023-08-16T02:52:25.871Z,19.80
2023-08-16T02:54:52.729Z,19.80
2023-08-16T02:57:19.701Z,19.70
2023-08-16T02:59:49.386Z,19.70
2023-08-16T03:06:04.663Z,19.90
2023-08-16T03:08:31.412Z,19.90
2023-08-16T03:10:58.222Z,20.00
2023-08-16T03:13:25.087Z,20.00
2023-08-16T03:15:51.920Z,20.00
2023-08-16T03:18:18.632Z,20.10
2023-08-16T03:20:45.857Z,20.00
2023-08-16T03:23:12.519Z,20.00
2023-08-16T03:25:39.291Z,20.10
2023-08-16T03:28:06.349Z,20.10
2023-08-16T03:30:33.235Z,20.10
2023-08-16T03:33:00.065Z,20.10
2023-08-16T03:35:26.892Z,20.10
2023-08-16T03:37:53.720Z,20.10
2023-08-16T03:40:20.606Z,20.10
2023-08-16T03:42:48.116Z,20.20
2023-08-16T03:45:14.855Z,20.20
2023-08-16T03:47:42.114Z,20.20
2023-08-16T03:50:09.288Z,20.30
2023-08-16T03:52:36.092Z,20.30
2023-08-16T03:55:03.803Z,20.40
2023-08-16T03:57:30.470Z,20.50
2023-08-16T03:59:57.155Z,20.60
2023-08-16T04:02:24.020Z,20.70
2023-08-16T04:04:54.821Z,20.80
2023-08-16T04:07:21.864Z,20.80
2023-08-16T04:09:48.790Z,20.80
2023-08-16T04:12:15.643Z,20.80
2023-08-16T04:14:42.482Z,20.80
2023-08-16T04:17:09.255Z,20.80
2023-08-16T04:19:36.087Z,20.70
2023-08-16T04:22:03.122Z,20.70
2023-08-16T04:24:29.982Z,20.80
2023-08-16T04:26:56.649Z,20.70
2023-08-16T04:29:23.605Z,20.70
2023-08-16T04:31:50.656Z,20.60
2023-08-16T04:34:17.572Z,20.60
2023-08-16T04:36:44.426Z,20.60
2023-08-16T04:39:11.422Z,20.50
2023-08-16T04:41:38.121Z,20.50
2023-08-16T04:44:05.563Z,20.50
2023-08-16T04:46:32.342Z,20.60
2023-08-16T04:48:59.072Z,20.70
2023-08-16T04:51:25.837Z,20.90
2023-08-16T04:53:52.964Z,20.90
2023-08-16T04:56:20.035Z,21.00
2023-08-16T04:58:46.813Z,21.00
2023-08-16T05:01:13.660Z,21.00
2023-08-16T05:03:40.515Z,21.00
2023-08-16T05:06:07.563Z,21.00
2023-08-16T05:08:34.409Z,21.00
2023-08-16T05:11:01.242Z,21.00
2023-08-16T05:13:28.074Z,21.20
2023-08-16T05:15:54.883Z,21.10
2023-08-16T05:18:21.831Z,21.20
2023-08-16T05:20:48.645Z,21.10
2023-08-16T05:23:15.464Z,21.00
2023-08-16T05:25:42.191Z,21.00
2023-08-16T05:28:09.085Z,21.00
2023-08-16T05:30:36.194Z,21.00
2023-08-16T05:33:03.608Z,21.00
2023-08-16T05:35:34.539Z,21.10
2023-08-16T05:38:02.024Z,21.00
2023-08-16T05:40:28.918Z,21.20
2023-08-16T05:42:55.782Z,21.30
2023-08-16T05:45:24.240Z,21.20
2023-08-16T05:47:51.104Z,21.20
2023-08-16T05:50:17.975Z,21.10
2023-08-16T05:52:44.735Z,21.10
2023-08-16T05:55:11.503Z,21.10
2023-08-16T05:57:38.341Z,21.00
2023-08-16T06:00:05.614Z,20.90
2023-08-16T06:02:32.520Z,20.90
2023-08-16T06:05:00.258Z,20.90
2023-08-16T06:07:27.807Z,20.90
2023-08-16T06:09:54.565Z,20.90
2023-08-16T06:12:21.411Z,20.90
2023-08-16T06:14:48.205Z,21.00
2023-08-16T06:17:15.021Z,21.20
2023-08-16T06:19:41.931Z,21.20
2023-08-16T06:22:08.761Z,21.10
2023-08-16T06:24:36.900Z,21.00
2023-08-16T06:27:03.864Z,21.00
2023-08-16T06:29:31.081Z,21.20
2023-08-16T06:31:57.903Z,21.20
2023-08-16T06:34:25.560Z,21.40
2023-08-16T06:36:52.475Z,21.30
2023-08-16T06:39:19.253Z,21.30
2023-08-16T06:41:46.171Z,21.60
2023-08-16T06:44:12.957Z,21.80
2023-08-16T06:46:39.907Z,21.80
2023-08-16T06:49:06.856Z,22.00
2023-08-16T06:51:33.772Z,22.10
2023-08-16T06:54:00.436Z,22.20
2023-08-16T06:56:27.225Z,22.50
2023-08-16T06:58:54.326Z,22.50
2023-08-16T07:01:21.216Z,22.40
2023-08-16T07:03:49.431Z,22.20
2023-08-16T07:06:16.390Z,22.20
2023-08-16T07:08:43.380Z,22.30
2023-08-16T07:11:10.226Z,22.90
2023-08-16T07:13:37.100Z,22.80
2023-08-16T07:16:04.089Z,22.90
2023-08-16T07:18:30.872Z,22.90
2023-08-16T07:20:57.779Z,22.70
2023-08-16T07:23:24.662Z,22.60
2023-08-16T07:26:00.561Z,22.70
2023-08-16T07:28:27.497Z,22.80
2023-08-16T07:30:55.351Z,22.80
2023-08-16T07:33:23.233Z,23.20
2023-08-16T07:35:50.864Z,23.30
2023-08-16T07:38:17.860Z,23.30
2023-08-16T07:40:48.896Z,23.30
2023-08-16T07:43:16.342Z,23.20
2023-08-16T07:45:43.148Z,23.30
2023-08-16T07:48:10.012Z,23.40
2023-08-16T07:50:37.721Z,23.50
2023-08-16T07:53:04.816Z,23.50
2023-08-16T07:55:35.100Z,23.70
2023-08-16T07:58:02.013Z,23.90
2023-08-16T08:00:28.897Z,23.90
2023-08-16T08:03:00.410Z,23.90
2023-08-16T08:05:28.032Z,23.90
2023-08-16T08:07:55.190Z,23.80
2023-08-16T08:10:22.115Z,23.70
2023-08-16T08:12:49.012Z,23.70
2023-08-16T08:15:16.049Z,23.60
2023-08-16T08:17:42.917Z,23.70
2023-08-16T08:20:10.414Z,24.00
2023-08-16T08:22:37.383Z,24.10
2023-08-16T08:25:05.584Z,24.10
2023-08-16T08:27:32.539Z,24.20
2023-08-16T08:29:59.408Z,24.30
2023-08-16T08:32:26.506Z,24.60
2023-08-16T08:34:53.505Z,24.90
2023-08-16T08:37:20.477Z,25.00
2023-08-16T08:39:47.364Z,25.10
2023-08-16T08:42:14.476Z,24.90
2023-08-16T08:44:43.885Z,24.90
2023-08-16T08:47:16.490Z,24.90
2023-08-16T08:49:44.317Z,25.10
2023-08-16T08:52:11.645Z,25.30
2023-08-16T08:54:38.623Z,25.40
2023-08-16T08:57:06.516Z,25.40
2023-08-16T08:59:35.513Z,25.50
2023-08-16T09:02:03.000Z,25.60
2023-08-16T09:04:31.990Z,25.60
2023-08-16T09:07:01.074Z,25.60
2023-08-16T09:09:28.226Z,25.90
2023-08-16T09:11:55.011Z,26.20
2023-08-16T09:14:21.811Z,26.20
2023-08-16T09:16:48.699Z,26.30
2023-08-16T09:19:16.282Z,26.60
2023-08-16T09:21:43.877Z,27.10
2023-08-16T09:24:11.236Z,27.20
2023-08-16T09:26:38.859Z,26.80
2023-08-16T09:29:05.915Z,26.50
2023-08-16T09:31:40.625Z,27.00
2023-08-16T09:34:07.940Z,27.20
2023-08-16T09:36:38.561Z,26.90
2023-08-16T09:39:12.922Z,26.90
2023-08-16T09:41:52.791Z,27.00
2023-08-16T09:44:20.455Z,27.20
2023-08-16T09:49:17.676Z,27.10
2023-08-16T09:54:18.321Z,27.70
2023-08-16T10:04:20.844Z,27.50
2023-08-16T10:09:20.606Z,27.80
2023-08-16T10:11:49.762Z,28.40
2023-08-16T10:14:16.580Z,28.20
2023-08-16T10:16:46.608Z,28.70
2023-08-16T10:19:15.209Z,29.00
2023-08-16T10:21:47.957Z,28.70
2023-08-16T10:24:32.334Z,28.90
2023-08-16T10:27:03.284Z,28.50
2023-08-16T10:29:36.951Z,28.80
2023-08-16T10:32:09.693Z,28.60
2023-08-16T10:34:37.029Z,28.70
2023-08-16T10:37:04.738Z,28.20
2023-08-16T10:39:31.988Z,27.90
2023-08-16T10:42:06.913Z,28.40
2023-08-16T10:44:34.136Z,28.00
2023-08-16T10:47:01.428Z,27.70
2023-08-16T10:49:38.020Z,27.90
2023-08-16T10:52:05.297Z,28.10
2023-08-16T10:54:36.594Z,27.90
2023-08-16T10:57:06.238Z,28.00
2023-08-16T10:59:40.218Z,28.10
2023-08-16T11:02:19.313Z,27.80
2023-08-16T11:04:47.418Z,27.60
2023-08-16T11:07:19.227Z,27.80
2023-08-16T11:09:46.633Z,28.00
2023-08-16T11:12:15.763Z,27.70
2023-08-16T11:14:44.926Z,28.40
2023-08-16T11:17:16.043Z,28.30
2023-08-16T11:19:43.499Z,28.40
2023-08-16T11:22:13.035Z,27.90
2023-08-16T11:24:40.142Z,28.20
2023-08-16T11:27:07.888Z,29.00
2023-08-16T11:29:35.290Z,29.10
2023-08-16T11:32:02.140Z,29.60
2023-08-16T11:34:32.744Z,29.20
2023-08-16T11:36:59.799Z,29.00
2023-08-16T11:39:28.388Z,29.80
2023-08-16T11:41:55.291Z,29.50
2023-08-16T11:44:22.336Z,29.50
2023-08-16T11:46:50.552Z,29.20
2023-08-16T11:49:22.454Z,29.20
2023-08-16T11:51:49.409Z,29.70
2023-08-16T11:54:24.395Z,29.50
2023-08-16T11:56:52.220Z,29.40
2023-08-16T11:59:30.043Z,29.50
2023-08-16T12:01:57.507Z,29.50
2023-08-16T12:04:25.731Z,29.90
2023-08-16T12:06:53.265Z,29.20
2023-08-16T12:09:20.263Z,28.90
2023-08-16T12:11:51.690Z,28.30
2023-08-16T12:14:18.719Z,28.40
2023-08-16T12:16:45.412Z,28.60
2023-08-16T12:19:19.300Z,28.50
2023-08-16T12:21:46.241Z,28.40
2023-08-16T12:24:12.981Z,28.30
2023-08-16T12:26:39.798Z,28.70
2023-08-16T12:29:06.676Z,29.10
2023-08-16T12:31:35.329Z,28.70
2023-08-16T12:34:02.944Z,28.20
2023-08-16T12:36:29.815Z,28.50
2023-08-16T12:38:56.564Z,29.00
2023-08-16T12:41:23.406Z,28.70
2023-08-16T12:43:52.137Z,28.60
2023-08-16T12:46:19.160Z,28.70
2023-08-16T12:48:47.301Z,29.00
2023-08-16T12:51:17.564Z,28.90
2023-08-16T12:53:45.822Z,29.60
2023-08-16T12:56:13.823Z,29.50
2023-08-16T12:58:56.124Z,28.80
2023-08-16T13:01:24.227Z,29.20
2023-08-16T13:06:31.132Z,30.00
2023-08-16T13:11:34.536Z,28.70
2023-08-16T13:14:03.520Z,29.10
2023-08-16T13:16:31.703Z,29.90
2023-08-16T13:24:23.386Z,29.50
2023-08-16T13:29:29.867Z,29.60
2023-08-16T13:32:02.544Z,29.30
2023-08-16T13:37:25.136Z,29.70
2023-08-16T13:42:36.759Z,30.20
2023-08-16T13:47:35.283Z,31.00
2023-08-16T13:50:02.061Z,30.50
2023-08-16T13:52:29.455Z,29.30
2023-08-16T13:54:56.804Z,29.90
2023-08-16T13:57:24.057Z,28.90
2023-08-16T13:59:50.859Z,28.90
2023-08-16T14:02:17.671Z,29.00
2023-08-16T14:04:44.541Z,29.20
2023-08-16T14:07:11.262Z,28.60
2023-08-16T14:09:38.112Z,28.90
2023-08-16T14:12:05.266Z,29.40
2023-08-16T14:14:32.102Z,30.50
2023-08-16T14:16:59.035Z,30.60
2023-08-16T14:19:26.750Z,31.70
2023-08-16T14:21:57.163Z,30.30
2023-08-16T14:24:26.024Z,29.40
2023-08-16T14:26:52.878Z,30.00
2023-08-16T14:29:19.624Z,30.50
2023-08-16T14:31:46.684Z,30.80
2023-08-16T14:34:14.140Z,31.00
2023-08-16T14:36:40.967Z,31.10
2023-08-16T14:39:08.497Z,31.20
2023-08-16T14:41:35.259Z,31.20
2023-08-16T14:44:02.032Z,30.30
2023-08-16T14:46:28.974Z,29.20
2023-08-16T14:48:56.244Z,29.40
2023-08-16T14:51:23.281Z,28.90
2023-08-16T14:53:50.152Z,28.50
2023-08-16T14:56:16.949Z,28.90
2023-08-16T14:58:44.051Z,29.10
2023-08-16T15:01:11.034Z,29.20
2023-08-16T15:03:38.567Z,29.70
2023-08-16T15:06:05.955Z,31.20
2023-08-16T15:08:36.723Z,32.20
2023-08-16T15:11:20.253Z,33.10
2023-08-16T15:13:47.075Z,32.60
2023-08-16T15:16:15.333Z,30.30
2023-08-16T15:18:42.408Z,29.80
2023-08-16T15:21:09.267Z,29.70
2023-08-16T15:23:38.141Z,29.30
2023-08-16T15:26:07.338Z,29.60
2023-08-16T15:28:36.812Z,29.00
2023-08-16T15:31:04.360Z,29.40
2023-08-16T15:33:31.337Z,29.90
2023-08-16T15:35:58.443Z,30.30
2023-08-16T15:38:46.043Z,29.90
2023-08-16T15:41:13.230Z,29.50
2023-08-16T15:43:41.141Z,28.70
2023-08-16T15:46:09.470Z,28.10
2023-08-16T15:48:36.862Z,28.60
2023-08-16T15:51:03.855Z,29.00
2023-08-16T15:53:30.972Z,28.90
2023-08-16T15:55:57.803Z,29.20
2023-08-16T15:58:28.226Z,29.30
2023-08-16T16:01:03.015Z,29.30
2023-08-16T16:03:31.239Z,29.10
2023-08-16T16:05:58.496Z,28.80
2023-08-16T16:08:25.772Z,28.60
2023-08-16T16:10:52.648Z,28.90
2023-08-16T16:13:19.461Z,28.50
2023-08-16T16:15:47.331Z,28.30
2023-08-16T16:18:14.255Z,28.80
2023-08-16T16:20:41.247Z,28.90
2023-08-16T16:23:08.245Z,28.70
2023-08-16T16:25:35.231Z,28.20
2023-08-16T16:28:02.452Z,28.40
2023-08-16T16:30:29.544Z,28.20
2023-08-16T16:32:56.637Z,28.20
2023-08-16T16:35:25.866Z,28.70
2023-08-16T16:37:53.094Z,28.70
2023-08-16T16:40:19.990Z,28.60
2023-08-16T16:42:47.714Z,28.20
2023-08-16T16:45:14.612Z,28.00
2023-08-16T16:47:41.799Z,28.20
2023-08-16T16:50:09.538Z,28.10
2023-08-16T16:52:37.390Z,28.00
2023-08-16T16:55:05.485Z,27.90
2023-08-16T16:57:33.888Z,27.90
2023-08-16T17:00:01.759Z,27.70
2023-08-16T17:02:29.003Z,27.30
2023-08-16T17:04:56.062Z,27.30
2023-08-16T17:07:23.012Z,27.30
2023-08-16T17:09:49.850Z,27.50
2023-08-16T17:12:16.881Z,27.60
2023-08-16T17:14:43.838Z,27.70
2023-08-16T17:17:11.148Z,27.70
2023-08-16T17:19:37.999Z,27.70
2023-08-16T17:22:06.321Z,27.70
2023-08-16T17:24:33.236Z,27.70
2023-08-16T17:27:00.296Z,27.70
2023-08-16T17:29:27.415Z,27.70
2023-08-16T17:31:54.298Z,27.70
2023-08-16T17:34:21.699Z,27.70
2023-08-16T17:36:48.590Z,27.70
2023-08-16T17:39:15.306Z,27.70
2023-08-16T17:41:42.170Z,27.70
2023-08-16T17:44:09.535Z,27.60
2023-08-16T17:46:36.465Z,27.60
2023-08-16T17:49:03.387Z,27.50
2023-08-16T17:51:30.222Z,27.50
2023-08-16T17:53:56.937Z,27.50
2023-08-16T17:56:23.609Z,27.40
2023-08-16T17:58:50.424Z,27.40
2023-08-16T18:01:17.283Z,27.40
2023-08-16T18:03:44.188Z,27.40
2023-08-16T18:06:11.009Z,27.30
2023-08-16T18:08:37.857Z,27.30
2023-08-16T18:11:04.679Z,27.20
2023-08-16T18:13:31.734Z,27.20
2023-08-16T18:15:58.593Z,26.90
2023-08-16T18:18:25.929Z,26.60
2023-08-16T18:20:56.339Z,26.00
2023-08-16T18:23:23.594Z,25.50
2023-08-16T18:25:50.804Z,25.10
2023-08-16T18:28:20.152Z,24.50
2023-08-16T18:30:49.998Z,23.70
2023-08-16T18:33:17.061Z,22.60
2023-08-16T18:35:44.094Z,21.80
2023-08-16T18:38:11.040Z,21.30
2023-08-16T18:40:37.880Z,20.80
2023-08-16T18:43:04.737Z,20.50
2023-08-16T18:45:31.583Z,20.50
2023-08-16T18:47:58.412Z,20.10
2023-08-16T18:50:27.551Z,19.90
2023-08-16T18:52:56.547Z,19.90
2023-08-16T18:55:23.426Z,20.10
2023-08-16T18:57:50.301Z,20.30
2023-08-16T19:00:17.386Z,20.10
2023-08-16T19:02:44.088Z,20.20
2023-08-16T19:05:10.986Z,20.30
2023-08-16T19:07:37.823Z,20.50
2023-08-16T19:10:05.210Z,20.60
2023-08-16T19:12:32.254Z,20.60
2023-08-16T19:14:59.196Z,20.50
2023-08-16T19:17:26.345Z,20.60
2023-08-16T19:19:54.147Z,20.70
2023-08-16T19:22:21.080Z,20.60
2023-08-16T19:24:47.944Z,20.50
2023-08-16T19:27:16.424Z,20.50
2023-08-16T19:29:43.234Z,20.70
2023-08-16T19:32:10.008Z,20.60
2023-08-16T19:34:37.021Z,20.70
2023-08-16T19:37:03.995Z,20.70
2023-08-16T19:39:31.224Z,20.60
2023-08-16T19:41:58.152Z,20.60
2023-08-16T19:44:24.934Z,20.60
2023-08-16T19:46:51.710Z,20.60
2023-08-16T19:49:18.882Z,20.50
2023-08-16T19:51:45.648Z,20.50
2023-08-16T19:54:12.411Z,20.40
2023-08-16T19:56:39.491Z,20.40
2023-08-16T19:59:06.369Z,20.40
2023-08-16T20:01:34.671Z,20.40
2023-08-16T20:04:03.100Z,20.20
2023-08-16T20:06:30.137Z,20.20
2023-08-16T20:08:56.963Z,20.30
2023-08-16T20:11:23.799Z,20.40
2023-08-16T20:13:50.604Z,20.30
2023-08-16T20:16:17.349Z,20.40
2023-08-16T20:54:39.752Z,20.50
2023-08-16T20:57:06.641Z,20.40
2023-08-16T20:59:33.446Z,20.40
2023-08-16T21:02:00.257Z,20.50
2023-08-16T21:04:27.028Z,20.50
2023-08-16T21:06:53.798Z,20.30
2023-08-16T21:09:20.528Z,20.20
2023-08-16T21:11:47.248Z,20.10
2023-08-16T21:14:14.096Z,20.10
2023-08-16T21:16:41.005Z,20.20
2023-08-16T21:19:08.019Z,20.20
2023-08-16T21:21:35.054Z,20.20
2023-08-16T21:24:01.910Z,20.20
2023-08-16T21:26:28.791Z,20.20
2023-08-16T21:28:55.612Z,20.40
2023-08-16T21:31:22.596Z,20.50
2023-08-16T21:33:49.495Z,20.40
2023-08-16T21:36:16.384Z,20.50
2023-08-16T21:38:43.128Z,20.60
2023-08-16T21:41:09.887Z,20.70
2023-08-16T21:43:36.651Z,20.70
2023-08-16T21:46:03.528Z,20.60
2023-08-16T21:48:30.484Z,21.30
2023-08-16T21:50:57.248Z,21.50
2023-08-16T21:53:24.113Z,21.60
2023-08-16T21:55:53.640Z,21.70
2023-08-16T21:58:23.081Z,21.70
2023-08-16T22:00:50.201Z,21.70
2023-08-16T22:03:17.228Z,21.90
2023-08-16T22:05:44.004Z,21.90
2023-08-16T22:08:12.140Z,21.90
2023-08-16T22:10:38.920Z,21.80
2023-08-16T22:13:05.724Z,21.90
2023-08-16T22:15:32.604Z,21.90
2023-08-16T22:17:59.383Z,22.00
2023-08-16T22:20:26.363Z,22.20
2023-08-16T22:22:53.184Z,22.20
2023-08-16T22:25:20.915Z,22.20
2023-08-16T22:27:48.215Z,22.20
2023-08-16T22:30:15.614Z,22.20
2023-08-16T22:32:42.427Z,22.20
2023-08-16T22:35:09.690Z,22.20
2023-08-16T22:37:36.546Z,22.20
2023-08-16T22:40:03.689Z,22.10
2023-08-16T22:45:20.335Z,22.00
2023-08-16T22:47:47.317Z,21.90
2023-08-16T22:50:14.105Z,21.90
2023-08-16T22:52:41.566Z,22.00
2023-08-16T22:55:08.564Z,21.90
2023-08-16T22:57:35.384Z,21.90
2023-08-16T23:00:02.714Z,21.90
2023-08-16T23:02:29.458Z,21.80
2023-08-16T23:04:56.399Z,21.80
2023-08-16T23:07:23.403Z,21.80
2023-08-16T23:09:50.315Z,21.80
2023-08-16T23:12:17.066Z,21.80
2023-08-16T23:14:43.807Z,21.70
2023-08-16T23:17:10.524Z,21.60
2023-08-16T23:19:37.280Z,21.50
2023-08-16T23:22:04.084Z,21.40
2023-08-16T23:24:31.486Z,21.40
2023-08-16T23:26:58.405Z,21.50
2023-08-16T23:29:25.365Z,21.60
2023-08-16T23:31:52.154Z,21.60
2023-08-16T23:34:18.916Z,21.60
2023-08-16T23:36:45.796Z,21.50
2023-08-16T23:39:12.532Z,21.50
2023-08-16T23:41:39.281Z,21.50
2023-08-16T23:44:06.270Z,21.40
2023-08-16T23:46:33.219Z,21.50
2023-08-16T23:49:00.065Z,21.60
2023-08-16T23:51:26.891Z,21.40
2023-08-16T23:53:53.647Z,21.40
2023-08-16T23:56:20.465Z,21.30
2023-08-16T23:58:47.247Z,21.40
